createdAt,value
2018-05-17T00:00:03.449Z,11.18
2018-05-17T00:02:31.176Z,11.15
2018-05-17T00:04:58.772Z,11.21
2018-05-17T00:07:27.336Z,11.17
2018-05-17T00:09:54.975Z,11.33
2018-05-17T00:12:22.612Z,11.09
2018-05-17T00:14:50.249Z,11.12
2018-05-17T00:17:17.872Z,11.14
2018-05-17T00:19:45.625Z,10.95
2018-05-17T00:22:13.279Z,10.94
2018-05-17T00:24:40.881Z,10.95
2018-05-17T00:27:08.526Z,10.96
2018-05-17T00:29:36.130Z,11.02
2018-05-17T00:32:03.805Z,11.04
2018-05-17T00:34:31.415Z,10.99
2018-05-17T00:36:59.172Z,11.08
2018-05-17T00:39:26.775Z,11.03
2018-05-17T00:41:54.413Z,11.05
2018-05-17T00:44:22.038Z,11.00
2018-05-17T00:46:49.686Z,11.06
2018-05-17T00:49:17.325Z,11.03
2018-05-17T00:51:44.996Z,10.93
2018-05-17T00:54:12.691Z,10.91
2018-05-17T00:56:40.313Z,10.94
2018-05-17T00:59:07.912Z,10.96
2018-05-17T01:01:35.585Z,10.99
2018-05-17T01:04:03.205Z,10.88
2018-05-17T01:06:30.847Z,10.88
2018-05-17T01:08:58.436Z,11.12
2018-05-17T01:11:26.033Z,10.96
2018-05-17T01:13:54.933Z,10.92
2018-05-17T01:16:22.579Z,10.92
2018-05-17T01:18:50.209Z,10.95
2018-05-17T01:21:17.898Z,11.01
2018-05-17T01:23:45.531Z,10.97
2018-05-17T01:26:13.411Z,10.95
2018-05-17T01:28:41.075Z,10.81
2018-05-17T01:31:08.726Z,10.85
2018-05-17T01:33:36.943Z,10.87
2018-05-17T01:36:04.694Z,10.87
2018-05-17T01:38:32.652Z,10.84
2018-05-17T01:41:01.294Z,10.81
2018-05-17T01:43:29.113Z,10.85
2018-05-17T01:45:56.767Z,10.85
2018-05-17T01:48:24.429Z,10.83
2018-05-17T01:50:52.049Z,10.91
2018-05-17T01:53:19.651Z,10.90
2018-05-17T01:55:47.304Z,10.76
2018-05-17T01:58:14.965Z,10.96
2018-05-17T02:00:43.555Z,10.96
2018-05-17T02:03:11.168Z,10.88
2018-05-17T02:05:38.814Z,10.93
2018-05-17T02:08:06.441Z,10.87
2018-05-17T02:10:34.305Z,10.88
2018-05-17T02:13:02.027Z,10.82
2018-05-17T02:15:29.620Z,10.82
2018-05-17T02:17:57.321Z,10.76
2018-05-17T02:20:24.982Z,10.79
2018-05-17T02:22:53.345Z,10.75
2018-05-17T02:25:20.932Z,10.76
2018-05-17T02:27:48.591Z,10.77
2018-05-17T02:30:16.196Z,10.72
2018-05-17T02:32:43.894Z,10.81
2018-05-17T02:35:11.480Z,10.74
2018-05-17T02:37:39.085Z,10.62
2018-05-17T02:40:06.728Z,10.61
2018-05-17T02:42:34.444Z,10.66
2018-05-17T02:45:02.102Z,10.66
2018-05-17T02:47:29.714Z,10.63
2018-05-17T02:49:57.363Z,10.64
2018-05-17T02:52:24.995Z,10.67
2018-05-17T02:54:52.662Z,10.67
2018-05-17T02:57:20.346Z,10.59
2018-05-17T02:59:48.020Z,10.57
2018-05-17T03:02:15.946Z,10.59
2018-05-17T03:04:43.710Z,10.69
2018-05-17T03:07:12.399Z,10.68
2018-05-17T03:09:40.231Z,10.57
2018-05-17T03:12:07.880Z,10.66
2018-05-17T03:14:36.370Z,10.67
2018-05-17T03:17:04.320Z,10.71
2018-05-17T03:19:32.562Z,10.72
2018-05-17T03:22:00.848Z,10.71
2018-05-17T03:24:28.554Z,10.69
2018-05-17T03:26:56.359Z,10.71
2018-05-17T03:29:23.964Z,10.61
2018-05-17T03:31:51.627Z,10.63
2018-05-17T03:34:19.238Z,10.73
2018-05-17T03:36:47.588Z,10.72
2018-05-17T03:39:15.696Z,10.76
2018-05-17T03:41:45.823Z,10.76
2018-05-17T03:44:13.667Z,10.69
2018-05-17T03:46:41.429Z,10.68
2018-05-17T03:49:09.761Z,10.65
2018-05-17T03:51:37.368Z,10.65
2018-05-17T03:54:05.135Z,10.63
2018-05-17T03:56:32.879Z,10.66
2018-05-17T03:59:00.544Z,10.57
2018-05-17T04:01:39.916Z,10.46
2018-05-17T04:04:19.253Z,10.54
2018-05-17T04:06:47.218Z,10.64
2018-05-17T04:09:14.859Z,10.69
2018-05-17T04:11:42.525Z,10.79
2018-05-17T04:14:10.313Z,10.73
2018-05-17T04:16:37.976Z,10.79
2018-05-17T04:19:05.588Z,10.84
2018-05-17T04:21:33.814Z,10.79
2018-05-17T04:24:02.236Z,10.83
2018-05-17T04:26:30.474Z,10.88
2018-05-17T04:28:58.130Z,10.82
2018-05-17T04:31:26.340Z,10.82
2018-05-17T04:33:53.982Z,10.88
2018-05-17T04:36:21.601Z,10.95
2018-05-17T04:38:49.389Z,10.98
2018-05-17T04:41:17.006Z,10.93
2018-05-17T04:43:44.836Z,11.01
2018-05-17T04:46:12.978Z,10.98
2018-05-17T04:48:40.625Z,10.97
2018-05-17T04:51:08.851Z,11.00
2018-05-17T04:53:36.555Z,11.00
2018-05-17T04:56:04.209Z,11.08
2018-05-17T04:58:31.887Z,11.04
2018-05-17T05:00:59.502Z,11.17
2018-05-17T05:03:27.086Z,11.14
2018-05-17T05:05:54.905Z,11.27
2018-05-17T05:08:22.573Z,11.21
2018-05-17T05:10:50.198Z,11.33
2018-05-17T05:13:17.849Z,11.40
2018-05-17T05:15:45.611Z,11.41
2018-05-17T05:18:13.307Z,11.42
2018-05-17T05:20:41.625Z,11.46
2018-05-17T05:23:09.362Z,11.47
2018-05-17T05:25:37.195Z,11.55
2018-05-17T05:28:05.098Z,11.74
2018-05-17T05:30:32.865Z,11.70
2018-05-17T05:33:00.722Z,11.88
2018-05-17T05:35:28.368Z,12.17
2018-05-17T05:37:56.029Z,12.37
2018-05-17T05:40:23.688Z,12.70
2018-05-17T05:42:51.360Z,13.15
2018-05-17T05:45:19.146Z,13.39
2018-05-17T05:47:46.740Z,13.69
2018-05-17T05:50:14.468Z,13.79
2018-05-17T05:52:42.335Z,13.52
2018-05-17T05:55:10.558Z,13.49
2018-05-17T05:57:38.434Z,13.29
2018-05-17T06:00:06.051Z,13.36
2018-05-17T06:02:33.687Z,13.49
2018-05-17T06:05:01.355Z,13.45
2018-05-17T06:07:29.040Z,13.43
2018-05-17T06:09:56.668Z,13.28
2018-05-17T06:12:24.348Z,13.17
2018-05-17T06:14:52.201Z,13.21
2018-05-17T06:17:19.907Z,13.34
2018-05-17T06:19:48.912Z,13.10
2018-05-17T06:22:16.559Z,13.09
2018-05-17T06:24:45.878Z,13.37
2018-05-17T06:27:14.325Z,13.29
2018-05-17T06:29:42.165Z,13.32
2018-05-17T06:32:10.564Z,13.68
2018-05-17T06:34:38.775Z,13.84
2018-05-17T06:37:06.460Z,13.83
2018-05-17T06:39:34.063Z,14.03
2018-05-17T06:42:01.760Z,14.53
2018-05-17T06:44:29.399Z,14.22
2018-05-17T06:46:57.028Z,14.41
2018-05-17T06:49:24.671Z,13.86
2018-05-17T06:51:52.298Z,14.24
2018-05-17T06:54:20.130Z,13.91
2018-05-17T06:56:48.209Z,14.40
2018-05-17T06:59:16.560Z,14.57
2018-05-17T07:01:44.189Z,14.41
2018-05-17T07:04:11.858Z,14.59
2018-05-17T07:06:39.539Z,14.86
2018-05-17T07:09:07.326Z,15.08
2018-05-17T07:11:35.594Z,14.51
2018-05-17T07:14:03.232Z,14.72
2018-05-17T07:16:30.887Z,14.43
2018-05-17T07:18:58.589Z,14.44
2018-05-17T07:21:26.259Z,14.31
2018-05-17T07:23:53.901Z,14.61
2018-05-17T07:26:21.590Z,14.80
2018-05-17T07:28:49.483Z,15.00
2018-05-17T07:31:17.236Z,15.01
2018-05-17T07:33:44.794Z,15.20
2018-05-17T07:36:12.472Z,15.56
2018-05-17T07:38:41.038Z,15.05
2018-05-17T07:41:08.691Z,14.59
2018-05-17T07:43:36.341Z,14.67
2018-05-17T07:46:03.950Z,14.49
2018-05-17T07:48:31.655Z,14.41
2018-05-17T07:50:59.270Z,14.35
2018-05-17T07:53:26.926Z,14.63
2018-05-17T07:55:54.526Z,14.62
2018-05-17T07:58:22.338Z,15.06
2018-05-17T08:00:49.960Z,15.13
2018-05-17T08:03:17.598Z,15.19
2018-05-17T08:05:45.239Z,14.60
2018-05-17T08:08:12.911Z,14.53
2018-05-17T08:10:40.623Z,14.73
2018-05-17T08:13:08.226Z,15.29
2018-05-17T08:15:35.998Z,15.72
2018-05-17T08:18:03.728Z,16.06
2018-05-17T08:20:31.435Z,16.08
2018-05-17T08:22:59.058Z,15.48
2018-05-17T08:25:26.840Z,15.17
2018-05-17T08:27:54.501Z,15.57
2018-05-17T08:30:22.589Z,15.24
2018-05-17T08:32:51.167Z,15.58
2018-05-17T08:35:18.835Z,15.57
2018-05-17T08:37:46.458Z,15.49
2018-05-17T08:40:14.215Z,15.49
2018-05-17T08:42:41.874Z,15.47
2018-05-17T08:45:09.560Z,15.44
2018-05-17T08:47:37.180Z,15.29
2018-05-17T08:50:04.865Z,15.49
2018-05-17T08:52:32.487Z,15.21
2018-05-17T08:55:00.170Z,15.27
2018-05-17T08:57:27.869Z,15.53
2018-05-17T08:59:55.461Z,15.39
2018-05-17T09:02:23.127Z,15.46
2018-05-17T09:04:50.724Z,15.96
2018-05-17T09:07:18.369Z,16.31
2018-05-17T09:09:45.993Z,16.75
2018-05-17T09:12:13.643Z,16.74
2018-05-17T09:14:41.266Z,16.90
2018-05-17T09:17:08.865Z,16.60
2018-05-17T09:19:36.521Z,16.38
2018-05-17T09:22:04.130Z,15.90
2018-05-17T09:24:32.001Z,15.97
2018-05-17T09:26:59.628Z,16.32
2018-05-17T09:29:27.289Z,15.77
2018-05-17T09:31:54.954Z,15.89
2018-05-17T09:34:22.574Z,15.90
2018-05-17T09:36:51.043Z,15.84
2018-05-17T09:39:18.641Z,15.93
2018-05-17T09:41:46.320Z,15.78
2018-05-17T09:44:13.973Z,15.61
2018-05-17T09:46:42.202Z,15.79
2018-05-17T09:49:09.844Z,15.90
2018-05-17T09:51:37.563Z,16.06
2018-05-17T09:54:05.241Z,16.22
2018-05-17T09:56:33.549Z,16.13
2018-05-17T09:59:01.685Z,16.01
2018-05-17T10:01:29.442Z,16.20
2018-05-17T10:03:57.240Z,16.46
2018-05-17T10:06:25.075Z,16.63
2018-05-17T10:08:52.698Z,16.50
2018-05-17T10:11:20.605Z,16.51
2018-05-17T10:13:48.260Z,16.82
2018-05-17T10:16:16.295Z,16.56
2018-05-17T10:18:43.894Z,16.97
2018-05-17T10:21:12.074Z,17.22
2018-05-17T10:23:39.745Z,17.29
2018-05-17T10:26:07.349Z,17.61
2018-05-17T10:28:35.065Z,17.44
2018-05-17T10:31:02.764Z,17.72
2018-05-17T10:33:30.583Z,17.53
2018-05-17T10:35:58.250Z,17.13
2018-05-17T10:38:25.932Z,16.98
2018-05-17T10:40:53.538Z,17.53
2018-05-17T10:43:21.209Z,17.51
2018-05-17T10:45:48.851Z,17.75
2018-05-17T10:48:16.458Z,18.15
2018-05-17T10:50:44.891Z,17.86
2018-05-17T10:53:12.502Z,18.12
2018-05-17T10:55:40.166Z,17.75
2018-05-17T10:58:08.433Z,17.60
2018-05-17T11:00:36.074Z,17.41
2018-05-17T11:03:03.745Z,18.29
2018-05-17T11:05:31.502Z,18.61
2018-05-17T11:07:59.150Z,18.48
2018-05-17T11:10:26.838Z,18.33
2018-05-17T11:12:54.466Z,18.57
2018-05-17T11:15:22.189Z,18.58
2018-05-17T11:17:49.806Z,18.69
2018-05-17T11:20:17.593Z,18.70
2018-05-17T11:22:45.306Z,18.84
2018-05-17T11:25:12.993Z,18.91
2018-05-17T11:27:40.613Z,18.88
2018-05-17T11:30:08.597Z,19.15
2018-05-17T11:32:36.225Z,18.83
2018-05-17T11:35:03.934Z,18.78
2018-05-17T11:37:31.598Z,18.71
2018-05-17T11:39:59.425Z,18.80
2018-05-17T11:42:27.100Z,18.79
2018-05-17T11:44:54.741Z,18.47
2018-05-17T11:47:22.363Z,18.15
2018-05-17T11:49:50.023Z,18.23
2018-05-17T11:52:17.847Z,18.10
2018-05-17T11:54:45.802Z,17.87
2018-05-17T11:57:13.437Z,17.83
2018-05-17T11:59:41.319Z,17.64
2018-05-17T12:02:09.846Z,17.71
2018-05-17T12:04:38.045Z,17.93
2018-05-17T12:07:06.366Z,18.11
2018-05-17T12:09:34.051Z,18.10
2018-05-17T12:12:01.786Z,17.94
2018-05-17T12:14:29.439Z,18.07
2018-05-17T12:16:57.153Z,18.09
2018-05-17T12:19:25.245Z,18.44
2018-05-17T12:21:53.120Z,18.16
2018-05-17T12:24:20.772Z,17.98
2018-05-17T12:26:48.651Z,18.02
2018-05-17T12:29:16.341Z,18.06
2018-05-17T12:31:43.978Z,17.89
2018-05-17T12:34:11.675Z,17.91
2018-05-17T12:36:39.356Z,17.84
2018-05-17T12:39:07.083Z,17.77
2018-05-17T12:41:35.630Z,17.83
2018-05-17T12:44:03.298Z,17.76
2018-05-17T12:46:30.953Z,17.79
2018-05-17T12:48:58.611Z,17.90
2018-05-17T12:51:26.272Z,17.89
2018-05-17T12:53:53.934Z,17.86
2018-05-17T12:56:21.615Z,17.58
2018-05-17T12:58:49.357Z,17.92
2018-05-17T13:01:17.052Z,17.86
2018-05-17T13:03:44.765Z,18.06
2018-05-17T13:06:12.526Z,17.91
2018-05-17T13:08:40.943Z,17.73
2018-05-17T13:11:08.817Z,17.91
2018-05-17T13:13:36.528Z,17.89
2018-05-17T13:16:04.217Z,17.81
2018-05-17T13:18:31.936Z,17.63
2018-05-17T13:20:59.632Z,17.88
2018-05-17T13:23:27.283Z,17.89
2018-05-17T13:25:54.953Z,18.00
2018-05-17T13:28:22.547Z,17.86
2018-05-17T13:30:50.220Z,17.84
2018-05-17T13:33:17.864Z,17.62
2018-05-17T13:35:45.520Z,17.34
2018-05-17T13:38:13.161Z,17.39
2018-05-17T13:40:40.835Z,17.28
2018-05-17T13:43:08.991Z,17.10
2018-05-17T13:45:36.848Z,17.18
2018-05-17T13:48:04.476Z,17.35
2018-05-17T13:50:32.171Z,17.13
2018-05-17T13:52:59.861Z,16.94
2018-05-17T13:55:27.554Z,17.08
2018-05-17T13:57:56.183Z,17.09
2018-05-17T14:00:24.033Z,16.91
2018-05-17T14:02:51.764Z,16.99
2018-05-17T14:05:19.388Z,17.09
2018-05-17T14:07:47.007Z,17.08
2018-05-17T14:10:14.701Z,17.11
2018-05-17T14:12:42.383Z,17.26
2018-05-17T14:15:10.118Z,17.12
2018-05-17T14:17:37.956Z,17.19
2018-05-17T14:20:05.585Z,17.20
2018-05-17T14:22:33.291Z,17.35
2018-05-17T14:25:01.292Z,17.25
2018-05-17T14:27:30.351Z,17.19
2018-05-17T14:29:58.060Z,17.46
2018-05-17T14:32:25.769Z,17.47
2018-05-17T14:34:53.411Z,17.54
2018-05-17T14:37:22.160Z,17.43
2018-05-17T14:39:49.909Z,17.33
2018-05-17T14:42:17.867Z,17.30
2018-05-17T14:44:45.568Z,17.01
2018-05-17T14:47:13.232Z,17.09
2018-05-17T14:49:40.882Z,16.85
2018-05-17T14:52:08.572Z,17.00
2018-05-17T14:54:36.228Z,16.99
2018-05-17T14:57:03.836Z,16.99
2018-05-17T14:59:31.493Z,17.00
2018-05-17T15:01:59.211Z,17.16
2018-05-17T15:04:26.863Z,17.03
2018-05-17T15:06:54.510Z,16.92
2018-05-17T15:09:22.182Z,17.15
2018-05-17T15:11:49.878Z,16.90
2018-05-17T15:14:17.544Z,16.92
2018-05-17T15:16:45.188Z,16.82
2018-05-17T15:19:13.516Z,16.79
2018-05-17T15:21:41.477Z,16.72
2018-05-17T15:24:10.460Z,16.69
2018-05-17T15:26:38.636Z,16.69
2018-05-17T15:29:07.846Z,16.67
2018-05-17T15:31:36.067Z,16.57
2018-05-17T15:34:03.890Z,16.73
2018-05-17T15:36:31.578Z,16.97
2018-05-17T15:38:59.222Z,16.92
2018-05-17T15:41:26.922Z,17.12
2018-05-17T15:43:54.638Z,17.15
2018-05-17T15:46:22.288Z,16.96
2018-05-17T15:48:50.196Z,17.16
2018-05-17T15:51:18.548Z,17.10
2018-05-17T15:53:48.233Z,16.72
2018-05-17T15:56:15.880Z,16.75
2018-05-17T15:58:43.598Z,16.86
2018-05-17T16:01:11.299Z,16.79
2018-05-17T16:03:38.965Z,16.82
2018-05-17T16:06:06.714Z,16.84
2018-05-17T16:08:34.566Z,16.95
2018-05-17T16:11:02.162Z,16.94
2018-05-17T16:13:29.804Z,16.89
2018-05-17T16:15:57.463Z,16.86
2018-05-17T16:18:25.130Z,16.87
2018-05-17T16:20:52.832Z,16.84
2018-05-17T16:23:20.473Z,16.61
2018-05-17T16:25:48.195Z,16.75
2018-05-17T16:28:16.336Z,16.61
2018-05-17T16:30:44.375Z,16.60
2018-05-17T16:33:12.091Z,16.51
2018-05-17T16:35:39.703Z,16.41
2018-05-17T16:38:07.360Z,16.40
2018-05-17T16:40:35.127Z,16.37
2018-05-17T16:43:02.840Z,16.47
2018-05-17T16:45:30.928Z,16.52
2018-05-17T16:47:58.533Z,16.50
2018-05-17T16:50:26.256Z,16.52
2018-05-17T16:52:53.937Z,16.43
2018-05-17T16:55:21.559Z,16.52
2018-05-17T16:57:49.333Z,16.28
2018-05-17T17:00:17.049Z,16.38
2018-05-17T17:02:44.790Z,16.34
2018-05-17T17:05:13.547Z,16.13
2018-05-17T17:07:41.234Z,16.19
2018-05-17T17:10:09.313Z,15.96
2018-05-17T17:12:37.040Z,15.96
2018-05-17T17:15:05.022Z,16.12
2018-05-17T17:17:32.768Z,16.03
2018-05-17T17:20:00.525Z,15.95
2018-05-17T17:22:28.255Z,15.81
2018-05-17T17:24:56.085Z,15.71
2018-05-17T17:27:24.286Z,15.72
2018-05-17T17:29:51.966Z,15.70
2018-05-17T17:32:19.672Z,15.81
2018-05-17T17:34:47.491Z,15.60
2018-05-17T17:37:15.246Z,15.54
2018-05-17T17:39:42.963Z,15.63
2018-05-17T17:42:10.655Z,15.48
2018-05-17T17:44:38.417Z,15.59
2018-05-17T17:47:06.243Z,15.39
2018-05-17T17:49:34.011Z,15.47
2018-05-17T17:52:01.704Z,15.51
2018-05-17T17:54:29.347Z,15.47
2018-05-17T17:56:57.077Z,15.51
2018-05-17T17:59:24.746Z,15.44
2018-05-17T18:01:52.397Z,15.46
2018-05-17T18:04:20.132Z,15.34
2018-05-17T18:06:47.830Z,15.37
2018-05-17T18:09:15.569Z,15.45
2018-05-17T18:11:43.325Z,15.30
2018-05-17T18:14:11.944Z,15.44
2018-05-17T18:16:39.658Z,15.30
2018-05-17T18:19:07.385Z,15.25
2018-05-17T18:21:35.084Z,15.14
2018-05-17T18:24:02.738Z,15.25
2018-05-17T18:26:30.460Z,15.29
2018-05-17T18:28:58.278Z,15.18
2018-05-17T18:31:26.183Z,15.23
2018-05-17T18:33:53.930Z,15.13
2018-05-17T18:36:21.581Z,15.16
2018-05-17T18:38:49.259Z,15.08
2018-05-17T18:41:16.909Z,15.19
2018-05-17T18:43:45.562Z,15.38
2018-05-17T18:46:15.034Z,15.22
2018-05-17T18:48:43.036Z,15.15
2018-05-17T18:51:10.925Z,15.18
2018-05-17T18:53:40.788Z,15.07
2018-05-17T18:56:08.678Z,15.03
2018-05-17T18:58:36.492Z,15.01
2018-05-17T19:01:04.619Z,14.91
2018-05-17T19:03:33.034Z,14.89
2018-05-17T19:06:00.722Z,14.84
2018-05-17T19:08:29.815Z,14.70
2018-05-17T19:10:57.997Z,14.78
2018-05-17T19:13:26.163Z,14.66
2018-05-17T19:15:54.500Z,14.74
2018-05-17T19:18:22.286Z,14.71
2018-05-17T19:20:50.155Z,14.79
2018-05-17T19:23:17.851Z,14.90
2018-05-17T19:25:46.169Z,14.82
2018-05-17T19:28:13.881Z,14.86
2018-05-17T19:30:42.119Z,14.86
2018-05-17T19:33:10.447Z,14.90
2018-05-17T19:35:38.078Z,14.96
2018-05-17T19:38:05.773Z,14.84
2018-05-17T19:40:33.433Z,14.75
2018-05-17T19:43:01.104Z,14.73
2018-05-17T19:45:28.858Z,14.81
2018-05-17T19:47:56.461Z,14.78
2018-05-17T19:50:24.115Z,14.80
2018-05-17T19:52:51.798Z,14.69
2018-05-17T19:55:19.488Z,14.60
2018-05-17T19:57:47.253Z,14.64
2018-05-17T20:00:14.926Z,14.70
2018-05-17T20:02:43.437Z,14.61
2018-05-17T20:05:11.193Z,14.69
2018-05-17T20:07:38.911Z,14.68
2018-05-17T20:10:08.567Z,14.52
2018-05-17T20:12:36.214Z,14.38
2018-05-17T20:15:04.071Z,14.47
2018-05-17T20:17:32.405Z,14.45
2018-05-17T20:20:00.093Z,14.36
2018-05-17T20:22:27.888Z,14.30
2018-05-17T20:24:55.579Z,14.42
2018-05-17T20:27:23.305Z,14.36
2018-05-17T20:29:51.006Z,14.33
2018-05-17T20:32:18.624Z,14.30
2018-05-17T20:34:46.304Z,14.26
2018-05-17T20:37:13.994Z,14.39
2018-05-17T20:39:41.626Z,14.34
2018-05-17T20:42:09.294Z,14.25
2018-05-17T20:44:36.931Z,14.19
2018-05-17T20:47:04.606Z,14.26
2018-05-17T20:49:32.496Z,14.46
2018-05-17T20:52:00.167Z,14.39
2018-05-17T20:54:27.861Z,14.33
2018-05-17T20:56:55.504Z,14.23
2018-05-17T20:59:23.165Z,14.15
2018-05-17T21:01:50.781Z,14.04
2018-05-17T21:04:19.268Z,13.97
2018-05-17T21:06:46.918Z,14.23
2018-05-17T21:09:14.609Z,14.17
2018-05-17T21:11:42.212Z,14.09
2018-05-17T21:14:09.888Z,13.97
2018-05-17T21:16:37.555Z,13.98
2018-05-17T21:19:05.169Z,13.93
2018-05-17T21:21:32.769Z,13.82
2018-05-17T21:24:00.453Z,13.74
2018-05-17T21:26:28.063Z,13.89
2018-05-17T21:28:55.732Z,13.87
2018-05-17T21:31:23.392Z,13.93
2018-05-17T21:33:51.072Z,13.79
2018-05-17T21:36:18.680Z,13.84
2018-05-17T21:38:46.405Z,13.86
2018-05-17T21:41:14.026Z,13.83
2018-05-17T21:43:41.668Z,13.89
2018-05-17T21:46:09.327Z,13.94
2018-05-17T21:48:37.051Z,13.84
2018-05-17T21:51:04.721Z,13.71
2018-05-17T21:53:32.342Z,13.75
2018-05-17T21:55:59.975Z,13.67
2018-05-17T21:58:32.579Z,13.58
2018-05-17T22:01:00.220Z,13.64
2018-05-17T22:03:27.880Z,13.82
2018-05-17T22:05:55.532Z,13.75
2018-05-17T22:08:23.127Z,13.65
2018-05-17T22:10:50.781Z,13.63
2018-05-17T22:13:18.406Z,13.46
2018-05-17T22:15:46.045Z,13.51
2018-05-17T22:18:13.696Z,13.56
2018-05-17T22:20:41.341Z,13.58
2018-05-17T22:23:08.928Z,13.59
2018-05-17T22:25:36.604Z,13.49
2018-05-17T22:28:04.296Z,13.42
2018-05-17T22:30:31.969Z,13.39
2018-05-17T22:32:59.551Z,13.44
2018-05-17T22:35:27.191Z,13.42
2018-05-17T22:37:54.821Z,13.36
2018-05-17T22:40:22.487Z,13.40
2018-05-17T22:42:50.091Z,13.35
2018-05-17T22:45:17.697Z,13.24
2018-05-17T22:47:45.309Z,13.32
2018-05-17T22:50:13.585Z,13.38
2018-05-17T22:52:41.265Z,13.35
2018-05-17T22:55:08.880Z,13.29
2018-05-17T22:57:48.452Z,13.33
2018-05-17T23:00:16.184Z,13.36
2018-05-17T23:02:43.836Z,13.37
2018-05-17T23:05:11.453Z,13.31
2018-05-17T23:07:39.110Z,13.23
2018-05-17T23:10:06.779Z,13.14
2018-05-17T23:12:34.384Z,13.22
2018-05-17T23:15:02.081Z,13.18
2018-05-17T23:17:29.715Z,13.23
2018-05-17T23:19:57.352Z,13.22
2018-05-17T23:22:36.918Z,13.23
2018-05-17T23:25:04.622Z,13.08
2018-05-17T23:27:32.382Z,13.13
2018-05-17T23:30:00.039Z,13.23
2018-05-17T23:32:27.672Z,13.09
2018-05-17T23:34:55.435Z,13.09
2018-05-17T23:37:23.118Z,13.03
2018-05-17T23:39:50.756Z,13.10
2018-05-17T23:42:18.398Z,13.17
2018-05-17T23:44:46.017Z,13.18
2018-05-17T23:47:13.592Z,13.21
2018-05-17T23:49:41.243Z,13.13
2018-05-17T23:52:08.841Z,13.16
2018-05-17T23:54:36.483Z,13.11
2018-05-17T23:57:04.098Z,13.10
2018-05-17T23:59:31.881Z,13.05
